5YGLF HKMO-HKNW
Flight info
| Callsign | 5YGLF |
|---|---|
| Flight time | N/A |
| Altitude | 36000 |
| Route | NERAG1A UTIKU DCT GV DCT LABAG |
| Aircraft | GLF6/M-SBDE2E3FGHIJ4J5M1RWXY/LB1D1 |
Departure
| Time | 2026-04-30 10:42 |
|---|---|
| Airport | Moi International Airport (HKMO) |
Arrival
| Time | N/A |
|---|---|
| Airport | Nairobi Wilson Airport (HKNW) |
| Time | Latitude | Longitude | Altitude | Speed | Heading |
|---|---|---|---|---|---|
| 2026-04-30 10:19 | -4.02813 | 39.60201 | 204 ft | 0 kts | 211° |
| 2026-04-30 10:36 | -4.02810 | 39.60175 | 204 ft | 7 kts | 290° |
| 2026-04-30 10:37 | -4.02786 | 39.60127 | 202 ft | 8 kts | 295° |
| 2026-04-30 10:37 | -4.02758 | 39.60071 | 200 ft | 9 kts | 301° |
| 2026-04-30 10:37 | -4.02701 | 39.60062 | 199 ft | 8 kts | 24° |
| 2026-04-30 10:37 | -4.02649 | 39.60088 | 198 ft | 7 kts | 28° |
| 2026-04-30 10:38 | -4.02601 | 39.60114 | 198 ft | 8 kts | 30° |
| 2026-04-30 10:38 | -4.02537 | 39.60152 | 198 ft | 13 kts | 29° |
| 2026-04-30 10:38 | -4.02435 | 39.60209 | 197 ft | 18 kts | 30° |
| 2026-04-30 10:38 | -4.02325 | 39.60273 | 197 ft | 18 kts | 31° |
| 2026-04-30 10:39 | -4.02211 | 39.60333 | 197 ft | 18 kts | 28° |
| 2026-04-30 10:39 | -4.02104 | 39.60394 | 197 ft | 18 kts | 29° |
| 2026-04-30 10:39 | -4.01973 | 39.60464 | 198 ft | 22 kts | 30° |
| 2026-04-30 10:39 | -4.01844 | 39.60540 | 199 ft | 20 kts | 30° |
| 2026-04-30 10:40 | -4.01732 | 39.60603 | 201 ft | 17 kts | 30° |
| 2026-04-30 10:40 | -4.01635 | 39.60656 | 202 ft | 14 kts | 30° |
| 2026-04-30 10:40 | -4.01557 | 39.60701 | 204 ft | 11 kts | 29° |
| 2026-04-30 10:40 | -4.01494 | 39.60727 | 205 ft | 8 kts | 12° |
| 2026-04-30 10:41 | -4.01446 | 39.60730 | 206 ft | 5 kts | 354° |
| 2026-04-30 10:41 | -4.01405 | 39.60722 | 207 ft | 7 kts | 344° |
| 2026-04-30 10:41 | -4.01344 | 39.60684 | 208 ft | 14 kts | 314° |
| 2026-04-30 10:41 | -4.01346 | 39.60622 | 208 ft | 6 kts | 210° |
| 2026-04-30 10:42 | -4.01361 | 39.60614 | 208 ft | 17 kts | 210° |
| 2026-04-30 10:42 | -4.01742 | 39.60399 | 199 ft | 110 kts | 209° |
| 2026-04-30 10:42 | -4.02635 | 39.59899 | 402 ft | 171 kts | 211° |
| 2026-04-30 10:42 | -4.03651 | 39.59173 | 1215 ft | 194 kts | 213° |
| 2026-04-30 10:43 | -4.04822 | 39.58253 | 1992 ft | 232 kts | 214° |
| 2026-04-30 10:43 | -4.06104 | 39.57332 | 3583 ft | 232 kts | 225° |
| 2026-04-30 10:43 | -4.06671 | 39.56461 | 4468 ft | 244 kts | 242° |
| 2026-04-30 10:43 | -4.06930 | 39.55294 | 4896 ft | 280 kts | 267° |
| 2026-04-30 10:44 | -4.05468 | 39.52279 | 6133 ft | 297 kts | 322° |
| 2026-04-30 10:44 | -4.03678 | 39.51321 | 6797 ft | 294 kts | 335° |
| 2026-04-30 10:44 | -4.01768 | 39.50462 | 7520 ft | 296 kts | 335° |
| 2026-04-30 10:44 | -3.99868 | 39.49606 | 8228 ft | 298 kts | 336° |
| 2026-04-30 10:45 | -3.97948 | 39.48742 | 8946 ft | 301 kts | 336° |
| 2026-04-30 10:45 | -3.95972 | 39.47853 | 9690 ft | 318 kts | 336° |
| 2026-04-30 10:45 | -3.93935 | 39.46860 | 10408 ft | 334 kts | 326° |
| 2026-04-30 10:45 | -3.92230 | 39.45225 | 11153 ft | 349 kts | 309° |
| 2026-04-30 10:46 | -3.90719 | 39.43264 | 11881 ft | 363 kts | 306° |
| 2026-04-30 10:46 | -3.89218 | 39.41198 | 12653 ft | 369 kts | 305° |
| 2026-04-30 10:46 | -3.87701 | 39.39085 | 13515 ft | 372 kts | 305° |
| 2026-04-30 10:46 | -3.86189 | 39.36977 | 14339 ft | 375 kts | 305° |
| 2026-04-30 10:47 | -3.84672 | 39.34861 | 15143 ft | 378 kts | 305° |
| 2026-04-30 10:47 | -3.83108 | 39.32680 | 15991 ft | 383 kts | 305° |
| 2026-04-30 10:47 | -3.81563 | 39.30526 | 16837 ft | 387 kts | 305° |
| 2026-04-30 10:47 | -3.79999 | 39.28344 | 17648 ft | 391 kts | 305° |
| 2026-04-30 10:48 | -3.78385 | 39.26094 | 18482 ft | 397 kts | 305° |
| 2026-04-30 10:48 | -3.76776 | 39.23850 | 19309 ft | 402 kts | 306° |
| 2026-04-30 10:48 | -3.75132 | 39.21558 | 20144 ft | 409 kts | 306° |
| 2026-04-30 10:48 | -3.73479 | 39.19256 | 20955 ft | 415 kts | 306° |
| 2026-04-30 10:49 | -3.71770 | 39.16877 | 21772 ft | 421 kts | 306° |
| 2026-04-30 10:49 | -3.70069 | 39.14508 | 22606 ft | 426 kts | 307° |
| 2026-04-30 10:49 | -3.68337 | 39.12098 | 23452 ft | 432 kts | 306° |
| 2026-04-30 10:49 | -3.66571 | 39.09636 | 24310 ft | 437 kts | 306° |
| 2026-04-30 10:50 | -3.64803 | 39.07173 | 25162 ft | 442 kts | 306° |
| 2026-04-30 10:50 | -3.63000 | 39.04660 | 25991 ft | 448 kts | 306° |
| 2026-04-30 10:50 | -3.61160 | 39.02098 | 26733 ft | 455 kts | 306° |
| 2026-04-30 10:50 | -3.59322 | 38.99536 | 27468 ft | 460 kts | 305° |
| 2026-04-30 10:51 | -3.57447 | 38.96924 | 28210 ft | 465 kts | 305° |
| 2026-04-30 10:51 | -3.55546 | 38.94275 | 28967 ft | 470 kts | 305° |
| 2026-04-30 10:51 | -3.53650 | 38.91634 | 29700 ft | 475 kts | 305° |
| 2026-04-30 10:51 | -3.51669 | 38.88874 | 29789 ft | 492 kts | 306° |
| 2026-04-30 10:52 | -3.47324 | 38.83442 | 29831 ft | 506 kts | 314° |
| 2026-04-30 10:52 | -3.42478 | 38.78339 | 29823 ft | 507 kts | 313° |
| 2026-04-30 10:53 | -3.37639 | 38.73210 | 29825 ft | 503 kts | 313° |
| 2026-04-30 10:53 | -3.32845 | 38.68127 | 29836 ft | 503 kts | 313° |
| 2026-04-30 10:54 | -3.28048 | 38.63042 | 29832 ft | 503 kts | 313° |
| 2026-04-30 10:54 | -3.23234 | 38.57939 | 29836 ft | 503 kts | 313° |
| 2026-04-30 10:55 | -3.18425 | 38.52842 | 29849 ft | 504 kts | 314° |
| 2026-04-30 10:55 | -3.13594 | 38.47722 | 29842 ft | 503 kts | 314° |
| 2026-04-30 10:56 | -3.08812 | 38.42657 | 29851 ft | 504 kts | 314° |
| 2026-04-30 10:56 | -3.03987 | 38.37545 | 29857 ft | 503 kts | 313° |
| 2026-04-30 10:57 | -2.99177 | 38.32449 | 29862 ft | 504 kts | 314° |